Terminal Aerodrome Forecast
Issued by NWS

Home | Current Version | Previous Version | Text Only | Print | Product List | Glossary On
Versions: 1 2 3 4 5 6 7 8 9 10 11 12
941
FTUS44 KLIX 161130
TAFMCB
TAF
KMCB 161130Z 1612/1712 VRB02KT P6SM OVC110
     FM162000 12005KT P6SM BKN200
     FM170700 13007KT P6SM BKN020 BKN130 WS020/15035KT
     FM170900 13007KT P6SM VCSH BKN010 OVC090 WS020/16035KT
     FM171100 14007KT 3SM -SHRA BR BKN008 OVC070 WS020/16040KT=

USA.gov is the U.S. government's official web portal to all federal, state and local government web resources and services.